Terminal Aerodrome Forecast
Issued by NWS Shreveport, LA

Current Version | Previous Version | Text Only | Print | Product List | Glossary On
Versions: 1 2 3 4 5 6 7 8 9 10 11 12 13 14 15 16 17 18 19
000
FTUS44 KSHV 211100
TAFMLU
TAF
KMLU 211120Z 2112/2212 00000KT 6SM BR SCT040
      TEMPO 2112/2113 BKN040
     FM211400 VRB03KT P6SM BKN040
     FM211700 02005KT P6SM FEW045
     FM220000 VRB03KT P6SM SKC=

USA.gov is the U.S. government's official web portal to all federal, state and local government web resources and services.